Time;durP1;ratioP1;P1;durP2;ratioP2;P2;SDS_P1;SDS_P2;PMS_P1;PMS_P2;Temp;Humidity;BMP_temperature;BMP_pressure;BME280_temperature;BME280_humidity;BME280_pressure;Samples;Min_cycle;Max_cycle;Signal;HPM_P1;HPM_P2
2021/04/11 00:01:44;;;;;;;154.20;147.20;;;9.60;99.90;;;;;;5135550;27;20455;-83
2021/04/11 00:04:10;;;;;;;153.23;145.53;;;9.60;99.90;;;;;;5126086;27;20818;-83
2021/04/11 00:06:37;;;;;;;159.43;151.90;;;9.70;99.90;;;;;;5113802;28;20449;-83
2021/04/11 00:09:05;;;;;;;158.13;150.53;;;9.60;99.90;;;;;;5122278;27;20485;-83
2021/04/11 00:11:32;;;;;;;162.60;154.77;;;9.60;99.90;;;;;;5135483;27;20483;-83
2021/04/11 00:13:59;;;;;;;164.37;156.67;;;9.60;99.90;;;;;;5115144;27;20457;-83
2021/04/11 00:16:26;;;;;;;158.63;150.63;;;9.60;99.90;;;;;;5117049;28;20481;-83
2021/04/11 00:18:53;;;;;;;154.17;146.97;;;9.60;99.90;;;;;;5131722;27;20934;-83
2021/04/11 00:21:19;;;;;;;164.47;156.90;;;9.60;99.90;;;;;;5134014;27;20481;-83
2021/04/11 00:23:46;;;;;;;158.37;151.13;;;9.60;99.90;;;;;;5119073;27;20513;-82
2021/04/11 00:26:13;;;;;;;153.00;145.70;;;9.60;99.90;;;;;;5116234;27;20541;-82
2021/04/11 00:28:40;;;;;;;159.20;151.60;;;9.70;99.90;;;;;;5134975;27;20538;-82
2021/04/11 00:31:06;;;;;;;148.97;141.87;;;9.60;99.90;;;;;;5134348;27;20490;-81
2021/04/11 00:33:35;;;;;;;149.83;142.93;;;9.70;99.90;;;;;;5134799;27;20480;-82
2021/04/11 00:36:04;;;;;;;158.87;151.37;;;9.70;99.90;;;;;;5134671;27;20516;-82
2021/04/11 00:38:31;;;;;;;153.47;146.27;;;9.70;99.90;;;;;;5133984;27;21229;-82
2021/04/11 00:41:01;;;;;;;159.60;151.87;;;9.60;99.90;;;;;;5134751;27;21017;-82
2021/04/11 00:43:29;;;;;;;161.30;153.60;;;9.60;99.90;;;;;;5115056;27;20452;-82
2021/04/11 00:46:01;;;;;;;162.70;155.03;;;9.60;99.90;;;;;;5114339;28;20483;-82
2021/04/11 00:48:30;;;;;;;167.20;159.20;;;9.70;99.90;;;;;;5132803;27;20472;-82
2021/04/11 00:51:02;;;;;;;165.60;158.00;;;9.70;99.90;;;;;;5134829;27;20448;-81
2021/04/11 00:53:28;;;;;;;167.87;159.77;;;9.70;99.90;;;;;;5115421;27;20466;-82
2021/04/11 00:55:55;;;;;;;166.70;158.50;;;9.70;99.90;;;;;;5128279;27;20556;-82
2021/04/11 00:58:23;;;;;;;165.03;157.00;;;9.70;99.90;;;;;;5134593;27;20448;-83
2021/04/11 01:00:50;;;;;;;167.67;159.37;;;9.70;99.90;;;;;;5120978;27;20440;-83
2021/04/11 01:03:19;;;;;;;169.30;161.07;;;9.60;99.90;;;;;;5125755;27;20528;-83
2021/04/11 01:05:45;;;;;;;168.63;160.33;;;9.60;99.90;;;;;;5134441;27;20551;-83
2021/04/11 01:08:16;;;;;;;172.13;163.90;;;9.70;99.90;;;;;;5121881;27;20444;-83
2021/04/11 01:10:47;;;;;;;173.70;165.67;;;9.60;99.90;;;;;;5113773;28;20456;-83
2021/04/11 01:13:14;;;;;;;167.87;159.87;;;9.70;99.90;;;;;;5123981;27;20445;-83
2021/04/11 01:15:40;;;;;;;177.20;168.43;;;9.70;99.90;;;;;;5134324;27;20819;-83
2021/04/11 01:18:08;;;;;;;174.80;166.43;;;9.60;99.90;;;;;;5124733;27;20532;-83
2021/04/11 01:20:35;;;;;;;177.93;169.40;;;9.70;99.90;;;;;;5113577;28;20495;-82
2021/04/11 01:23:18;;;;;;;171.40;163.03;;;9.70;99.90;;;;;;5113517;27;20499;-82
2021/04/11 01:25:47;;;;;;;170.40;162.07;;;9.70;99.90;;;;;;5113397;28;20448;-83
2021/04/11 01:28:19;;;;;;;165.20;157.20;;;9.70;99.90;;;;;;5122176;27;20436;-83
2021/04/11 01:30:46;;;;;;;180.70;171.83;;;9.80;99.90;;;;;;5133927;27;20443;-84
2021/04/11 01:33:16;;;;;;;185.67;176.33;;;9.80;99.90;;;;;;5133113;27;20500;-84
2021/04/11 01:35:45;;;;;;;177.97;168.47;;;9.80;99.90;;;;;;5134019;27;20830;-83
2021/04/11 01:38:15;;;;;;;178.77;170.17;;;9.80;99.90;;;;;;5124979;27;20807;-83
2021/04/11 01:40:45;;;;;;;172.70;164.13;;;9.80;99.90;;;;;;5113384;28;20870;-84
2021/04/11 01:43:13;;;;;;;178.53;169.47;;;9.80;99.90;;;;;;5120167;27;20444;-83
2021/04/11 01:45:43;;;;;;;179.50;171.00;;;9.80;99.90;;;;;;5132304;27;20473;-84
2021/04/11 01:48:12;;;;;;;176.93;168.20;;;9.80;99.90;;;;;;5133709;27;20819;-85
2021/04/11 01:50:44;;;;;;;175.10;166.77;;;9.80;99.90;;;;;;5130897;27;20501;-83
2021/04/11 01:53:11;;;;;;;172.70;164.40;;;9.70;99.90;;;;;;5112272;28;21358;-84
2021/04/11 01:55:41;;;;;;;174.73;166.47;;;9.70;99.90;;;;;;5114337;28;20547;-85
2021/04/11 01:58:08;;;;;;;168.70;160.57;;;9.70;99.90;;;;;;5113323;28;20458;-85
2021/04/11 02:00:39;;;;;;;169.53;160.93;;;9.70;99.90;;;;;;5118905;27;20447;-84
2021/04/11 02:03:11;;;;;;;170.13;161.97;;;9.70;99.90;;;;;;5133712;27;21077;-84
2021/04/11 02:05:39;;;;;;;171.40;163.10;;;9.70;99.90;;;;;;5127718;27;20470;-84
2021/04/11 02:08:08;;;;;;;166.30;157.60;;;9.70;99.90;;;;;;5112233;28;20871;-84
2021/04/11 02:10:36;;;;;;;165.53;157.13;;;9.70;99.90;;;;;;5113504;28;20886;-84
2021/04/11 02:13:02;;;;;;;148.50;141.00;;;9.70;99.90;;;;;;5113114;27;20973;-84
2021/04/11 02:15:36;;;;;;;130.53;123.03;;;9.10;99.90;;;;;;5113127;28;20951;-85
2021/04/11 02:18:04;;;;;;;121.43;114.70;;;8.80;99.90;;;;;;5115628;28;20456;-85
2021/04/11 02:20:33;;;;;;;120.13;113.30;;;8.70;99.90;;;;;;5133448;27;20458;-84
2021/04/11 02:23:00;;;;;;;122.83;115.83;;;8.60;99.90;;;;;;5130780;27;20447;-84
2021/04/11 02:25:34;;;;;;;123.87;116.67;;;8.40;99.90;;;;;;5112945;28;20456;-85
2021/04/11 02:28:09;;;;;;;128.60;121.07;;;8.30;99.90;;;;;;5113583;27;20443;-85
2021/04/11 02:31:16;;;;;;;141.37;133.70;;;8.20;99.90;;;;;;5133393;27;20595;-85
2021/04/11 02:33:55;;;;;;;134.77;127.37;;;8.00;99.90;;;;;;5126466;27;20464;-86
2021/04/11 02:36:28;;;;;;;135.00;127.60;;;7.90;99.90;;;;;;5111799;28;20488;-86
2021/04/11 02:38:57;;;;;;;116.47;110.43;;;8.00;99.90;;;;;;5116434;27;20476;-84
2021/04/11 02:41:29;;;;;;;133.40;126.47;;;7.80;99.90;;;;;;5116521;28;20504;-86
2021/04/11 02:44:00;;;;;;;128.80;122.50;;;7.70;99.90;;;;;;5123256;27;21028;-84
2021/04/11 02:46:28;;;;;;;147.33;139.30;;;7.70;99.90;;;;;;5137119;27;20473;-85
2021/04/11 02:48:55;;;;;;;154.13;146.93;;;7.60;99.90;;;;;;5130255;27;20457;-83
2021/04/11 02:51:27;;;;;;;140.90;134.30;;;7.60;99.90;;;;;;5132134;27;20458;-84
2021/04/11 02:54:09;;;;;;;149.43;142.03;;;7.30;99.90;;;;;;5131090;27;20542;-85
2021/04/11 02:56:39;;;;;;;166.23;158.23;;;7.30;99.90;;;;;;5116487;28;20518;-85
2021/04/11 02:59:13;;;;;;;147.03;140.40;;;7.20;99.90;;;;;;5116117;27;20939;-84
2021/04/11 03:01:43;;;;;;;154.93;147.23;;;7.20;99.90;;;;;;5116198;28;20807;-85
2021/04/11 03:04:15;;;;;;;148.33;140.60;;;7.10;99.90;;;;;;5122745;27;20458;-84
2021/04/11 03:06:50;;;;;;;167.23;159.27;;;7.10;99.90;;;;;;5135840;27;20464;-85
2021/04/11 03:09:25;;;;;;;152.83;144.90;;;7.00;99.90;;;;;;5129143;27;20451;-84
2021/04/11 03:11:59;;;;;;;156.33;148.63;;;7.00;99.90;;;;;;5115997;28;20454;-85
2021/04/11 03:14:54;;;;;;;174.10;165.03;;;6.90;99.90;;;;;;5123853;27;20474;-84
2021/04/11 03:17:24;;;;;;;178.67;170.27;;;6.90;99.90;;;;;;5136457;27;21003;-85
2021/04/11 03:19:59;;;;;;;171.73;163.70;;;6.80;99.90;;;;;;5135543;27;20454;-84
2021/04/11 03:22:35;;;;;;;183.57;175.07;;;6.70;99.90;;;;;;5126144;27;20457;-84
2021/04/11 03:25:07;;;;;;;178.07;170.00;;;6.70;99.90;;;;;;5117446;28;20886;-84
2021/04/11 03:27:37;;;;;;;176.27;168.17;;;6.60;99.90;;;;;;5124963;27;20449;-84
2021/04/11 03:30:12;;;;;;;191.23;182.33;;;6.60;99.90;;;;;;5136326;27;20457;-83
2021/04/11 03:32:45;;;;;;;204.10;194.90;;;6.60;99.90;;;;;;5126508;27;20778;-84
2021/04/11 03:35:26;;;;;;;178.20;169.70;;;6.40;99.90;;;;;;5118536;28;20474;-85
2021/04/11 03:38:05;;;;;;;177.17;168.83;;;6.50;99.90;;;;;;5125040;27;20642;-85
2021/04/11 03:40:36;;;;;;;183.83;175.43;;;6.30;99.90;;;;;;5135894;27;20452;-84
2021/04/11 03:43:11;;;;;;;172.53;164.70;;;6.40;99.90;;;;;;5123812;27;20933;-84
2021/04/11 03:45:51;;;;;;;161.80;154.57;;;6.10;99.90;;;;;;5117982;28;20446;-86
2021/04/11 03:51:18;;;;;;;188.00;179.63;;;5.90;99.90;;;;;;5127619;27;20455;-84
2021/04/11 03:53:49;;;;;;;178.20;170.30;;;5.90;99.90;;;;;;5134048;27;20458;-85
2021/04/11 03:56:26;;;;;;;182.40;174.33;;;5.80;99.90;;;;;;5135778;27;20555;-85
2021/04/11 03:58:58;;;;;;;197.43;188.67;;;5.70;99.90;;;;;;5116181;27;20475;-84
2021/04/11 04:01:41;;;;;;;187.87;179.67;;;5.70;99.90;;;;;;5114856;28;20453;-84
2021/04/11 04:04:14;;;;;;;195.77;186.87;;;5.60;99.90;;;;;;5114962;28;20456;-84
2021/04/11 04:07:00;;;;;;;202.67;193.47;;;5.60;99.90;;;;;;5113987;28;20453;-85
2021/04/11 04:09:29;;;;;;;187.63;178.70;;;5.60;99.90;;;;;;5115042;28;20858;-85
2021/04/11 04:12:17;;;;;;;184.73;176.43;;;5.60;99.90;;;;;;5114621;28;20448;-85
2021/04/11 04:14:57;;;;;;;182.10;173.80;;;5.50;99.90;;;;;;5114841;28;20862;-83
2021/04/11 04:17:35;;;;;;;188.57;180.33;;;5.40;99.90;;;;;;5118556;27;20482;-84
2021/04/11 04:20:16;;;;;;;192.50;183.73;;;5.40;99.90;;;;;;5135220;27;20450;-83
2021/04/11 04:22:56;;;;;;;179.40;171.30;;;5.30;99.90;;;;;;5123534;27;20444;-84
2021/04/11 04:25:37;;;;;;;193.67;184.67;;;5.30;99.90;;;;;;5124609;27;20527;-85
2021/04/11 04:28:23;;;;;;;194.63;185.50;;;5.20;99.90;;;;;;5135365;27;20454;-82
2021/04/11 04:30:56;;;;;;;172.53;164.67;;;5.30;99.90;;;;;;5121447;27;20445;-87
2021/04/11 04:33:40;;;;;;;185.73;177.60;;;5.30;99.90;;;;;;5117574;27;20534;-83
2021/04/11 04:36:29;;;;;;;199.37;190.40;;;5.20;99.90;;;;;;5129594;27;20483;-83
2021/04/11 04:39:28;;;;;;;196.03;187.20;;;5.20;99.90;;;;;;5129064;27;20536;-84
2021/04/11 04:42:14;;;;;;;214.53;204.33;;;5.20;99.90;;;;;;5114289;28;20510;-85
2021/04/11 04:45:03;;;;;;;214.90;205.00;;;5.20;99.90;;;;;;5115394;28;20484;-84
2021/04/11 04:47:53;;;;;;;212.33;202.53;;;5.10;99.90;;;;;;5115421;28;20504;-84
2021/04/11 04:50:52;;;;;;;203.90;195.10;;;5.10;99.90;;;;;;5133984;27;20446;-84
2021/04/11 04:53:29;;;;;;;213.60;204.20;;;5.00;99.90;;;;;;5092107;28;20464;-84
2021/04/11 04:56:09;;;;;;;197.30;188.40;;;5.00;99.90;;;;;;5114064;28;20521;-83
2021/04/11 04:59:00;;;;;;;196.80;187.80;;;4.90;99.90;;;;;;5113868;28;20449;-83
2021/04/11 05:01:33;;;;;;;194.23;185.33;;;4.90;99.90;;;;;;5113236;28;20509;-83
2021/04/11 05:04:07;;;;;;;190.50;181.70;;;4.80;99.90;;;;;;5114863;27;20457;-82
2021/04/11 05:06:41;;;;;;;203.17;193.33;;;4.70;99.90;;;;;;5126593;27;20513;-83
2021/04/11 05:09:37;;;;;;;189.37;180.67;;;4.70;99.90;;;;;;5113465;28;20527;-83
2021/04/11 05:12:15;;;;;;;194.07;184.67;;;4.70;99.90;;;;;;5113380;28;20459;-86
2021/04/11 05:14:53;;;;;;;192.83;183.47;;;4.70;99.90;;;;;;5077601;28;20527;-84
2021/04/11 05:17:27;;;;;;;200.93;191.70;;;4.70;99.90;;;;;;5121916;27;20476;-86
2021/04/11 05:20:05;;;;;;;192.00;182.80;;;4.70;99.90;;;;;;5113520;28;20448;-84
2021/04/11 05:22:38;;;;;;;195.37;186.17;;;4.70;99.90;;;;;;5118892;27;20444;-83
2021/04/11 05:25:10;;;;;;;183.93;175.20;;;4.60;99.90;;;;;;5117859;27;20565;-83
2021/04/11 05:27:55;;;;;;;179.13;170.40;;;4.60;99.90;;;;;;5121411;27;20970;-84
2021/04/11 05:30:26;;;;;;;194.60;184.90;;;4.60;99.90;;;;;;5123390;27;20981;-83
2021/04/11 05:32:55;;;;;;;181.43;171.80;;;4.50;99.90;;;;;;5132406;27;20943;-83
2021/04/11 05:35:29;;;;;;;180.90;171.20;;;4.60;99.90;;;;;;5133661;27;20479;-84
2021/04/11 05:38:12;;;;;;;171.37;162.97;;;4.50;99.90;;;;;;5112725;28;20485;-83
2021/04/11 05:40:42;;;;;;;170.67;161.97;;;4.50;99.90;;;;;;5120876;27;20536;-83
2021/04/11 05:43:17;;;;;;;163.30;155.60;;;4.60;99.90;;;;;;5132191;27;20444;-80
2021/04/11 05:45:52;;;;;;;163.50;155.17;;;4.50;99.90;;;;;;5119083;27;20468;-84
2021/04/11 05:48:24;;;;;;;173.73;164.40;;;4.40;99.90;;;;;;5120633;27;20807;-83
2021/04/11 05:51:00;;;;;;;180.37;170.90;;;4.30;99.90;;;;;;5124732;27;20928;-85
2021/04/11 05:53:34;;;;;;;159.53;151.70;;;4.20;99.90;;;;;;5111859;28;20444;-83
2021/04/11 05:56:04;;;;;;;165.47;156.70;;;4.30;99.90;;;;;;5116623;27;20449;-83
2021/04/11 05:58:37;;;;;;;167.50;158.80;;;4.30;99.90;;;;;;5114164;28;20575;-83
2021/04/11 06:01:07;;;;;;;179.30;169.97;;;4.20;99.90;;;;;;5122699;27;20444;-83
2021/04/11 06:03:36;;;;;;;175.93;166.37;;;4.10;99.90;;;;;;5122639;27;20479;-83
2021/04/11 06:06:12;;;;;;;173.53;163.70;;;4.30;99.90;;;;;;5120769;27;20505;-82
2021/04/11 06:08:54;;;;;;;182.17;173.50;;;4.20;99.90;;;;;;5118011;27;20462;-82
2021/04/11 06:11:27;;;;;;;168.90;160.40;;;4.20;99.90;;;;;;5123447;27;20504;-81
2021/04/11 06:14:04;;;;;;;165.90;157.20;;;4.20;99.90;;;;;;5127310;27;20454;-83
2021/04/11 06:16:37;;;;;;;164.63;156.93;;;4.10;99.90;;;;;;5124101;27;20478;-84
2021/04/11 06:19:08;;;;;;;171.00;162.90;;;4.30;99.90;;;;;;5123592;27;20483;-83
2021/04/11 06:22:01;;;;;;;177.30;168.70;;;4.20;99.90;;;;;;5117456;27;20448;-82
2021/04/11 06:24:46;;;;;;;161.97;154.13;;;4.20;99.90;;;;;;5126957;27;21003;-82
2021/04/11 06:27:28;;;;;;;157.13;149.33;;;4.30;99.90;;;;;;5127613;27;20452;-83
2021/04/11 06:30:02;;;;;;;174.43;165.53;;;4.20;99.90;;;;;;5130121;27;20478;-83
2021/04/11 06:32:35;;;;;;;158.03;149.50;;;4.20;99.90;;;;;;5123608;27;20965;-82
2021/04/11 06:35:06;;;;;;;162.03;153.30;;;4.20;99.90;;;;;;5136396;27;20467;-83
2021/04/11 06:37:35;;;;;;;149.80;141.40;;;4.30;99.90;;;;;;5134485;27;20994;-83
2021/04/11 06:40:10;;;;;;;168.80;160.03;;;4.40;99.90;;;;;;5136041;27;20455;-83
2021/04/11 06:42:47;;;;;;;153.33;145.30;;;4.30;99.90;;;;;;5122970;27;20938;-82
2021/04/11 06:45:22;;;;;;;172.53;162.33;;;4.30;99.90;;;;;;5132737;27;20479;-83
2021/04/11 06:48:21;;;;;;;162.47;153.73;;;4.30;99.90;;;;;;5116588;28;20796;-82
2021/04/11 06:51:20;;;;;;;164.70;156.07;;;4.30;99.90;;;;;;5124542;27;20465;-81
2021/04/11 06:54:27;;;;;;;157.63;149.80;;;4.30;99.90;;;;;;5116253;27;20452;-86
2021/04/11 06:57:31;;;;;;;153.67;144.67;;;4.30;99.90;;;;;;5136589;27;20548;-84
2021/04/11 07:00:31;;;;;;;162.17;153.70;;;4.20;99.90;;;;;;5113132;27;20517;-87
2021/04/11 07:03:37;;;;;;;143.03;136.40;;;4.20;99.90;;;;;;5055794;28;20830;-84
2021/04/11 07:06:55;;;;;;;145.97;138.70;;;4.10;99.90;;;;;;5105122;28;20502;-85
2021/04/11 07:09:51;;;;;;;157.43;149.63;;;4.20;99.90;;;;;;5115670;28;20444;-84
2021/04/11 07:16:11;;;;;;;127.20;121.47;;;4.30;99.90;;;;;;5079475;28;20464;-84
2021/04/11 07:46:44;;;;;;;134.00;127.30;;;4.20;99.90;;;;;;4827545;29;20545;-84
2021/04/11 07:56:57;;;;;;;120.70;115.30;;;4.10;99.90;;;;;;4975721;28;20981;-83
2021/04/11 08:07:03;;;;;;;;;;;;;;;;;;;;;
2021/04/11 08:27:05;;;;;;;;;;;;;;;;;;;;;
2021/04/11 08:43:59;;;;;;;122.13;116.73;;;4.00;99.90;;;;;;4987410;28;20465;-84
2021/04/11 08:53:42;;;;;;;113.57;108.33;;;4.00;99.90;;;;;;4986907;28;20498;-84
2021/04/11 08:56:43;;;;;;;113.50;108.50;;;4.10;99.90;;;;;;5059109;28;20552;-83
2021/04/11 09:03:36;;;;;;;114.60;109.47;;;4.10;99.90;;;;;;5036951;28;21506;-83
2021/04/11 09:06:15;;;;;;;119.03;113.73;;;4.10;99.90;;;;;;5038066;28;20871;-83
2021/04/11 09:23:43;;;;;;;;;;;;;;;;;;;;;
2021/04/11 09:26:57;;;;;;;;;;;;;;;;;;;;;
2021/04/11 10:19:13;;;;;;;;;;;;;;;;;;;;;
2021/04/11 11:03:01;;;;;;;57.87;55.37;;;4.40;99.90;;;;;;5022631;28;20454;-83
2021/04/11 11:06:21;;;;;;;54.10;51.80;;;4.30;99.90;;;;;;4999169;28;20488;-83
2021/04/11 11:16:50;;;;;;;;;;;;;;;;;;;;;
2021/04/11 11:19:49;;;;;;;63.90;61.30;;;4.30;99.90;;;;;;4876176;29;20472;-83
2021/04/11 11:29:44;;;;;;;63.87;61.27;;;4.40;99.90;;;;;;4964936;28;20507;-83
2021/04/11 11:32:40;;;;;;;62.20;59.57;;;4.30;99.90;;;;;;5051028;28;20466;-84
2021/04/11 11:35:32;;;;;;;66.00;63.10;;;4.30;99.90;;;;;;5054939;28;20475;-84
2021/04/11 11:38:22;;;;;;;66.83;64.03;;;4.60;99.90;;;;;;5113322;28;20480;-84
2021/04/11 11:44:42;;;;;;;62.73;60.13;;;4.60;99.90;;;;;;4952165;28;20464;-83
2021/04/11 11:47:52;;;;;;;64.23;61.53;;;4.60;99.90;;;;;;5074791;28;20449;-83
2021/04/11 11:50:30;;;;;;;66.60;63.90;;;4.60;99.90;;;;;;5009973;28;20449;-84
2021/04/11 11:53:26;;;;;;;;;;;;;;;;;;;;;
2021/04/11 11:56:21;;;;;;;65.60;62.80;;;4.60;99.90;;;;;;5099515;27;20452;-84
2021/04/11 11:59:30;;;;;;;;;;;;;;;;;;;;;
2021/04/11 12:09:59;;;;;;;53.53;51.13;;;4.80;99.90;;;;;;4888141;29;20472;-84
2021/04/11 12:16:25;;;;;;;42.10;40.00;;;5.00;99.90;;;;;;5045987;28;20482;-85
2021/04/11 12:19:41;;;;;;;;;;;;;;;;;;;;;
2021/04/11 12:26:08;;;;;;;53.17;50.67;;;5.20;99.90;;;;;;4869811;28;20478;-84
2021/04/11 12:28:59;;;;;;;38.80;36.90;;;5.40;99.90;;;;;;4964489;28;20513;-84
2021/04/11 12:35:10;;;;;;;;;;;;;;;;;;;;;
2021/04/11 12:41:31;;;;;;;;;;;;;;;;;;;;;
2021/04/11 12:44:44;;;;;;;41.20;39.30;;;5.10;99.90;;;;;;5057050;28;20474;-83
2021/04/11 12:47:41;;;;;;;53.30;50.73;;;5.00;99.90;;;;;;5042888;28;20447;-84
2021/04/11 12:50:40;;;;;;;;;;;;;;;;;;;;;
2021/04/11 12:53:53;;;;;;;32.90;31.20;;;5.40;99.90;;;;;;5030962;28;20474;-84
2021/04/11 12:56:21;;;;;;;32.70;31.10;;;5.70;99.90;;;;;;5062637;28;20450;-83
2021/04/11 12:58:56;;;;;;;34.27;31.63;;;5.70;99.90;;;;;;5079123;28;20566;-83
2021/04/11 13:01:45;;;;;;;36.27;34.50;;;5.70;99.90;;;;;;5076569;28;20453;-82
2021/04/11 13:04:22;;;;;;;41.10;39.10;;;5.80;99.90;;;;;;5088373;28;20534;-83
2021/04/11 13:06:55;;;;;;;42.33;40.40;;;5.90;99.90;;;;;;5072352;28;20813;-83
2021/04/11 13:09:41;;;;;;;41.40;39.43;;;6.10;99.90;;;;;;5073446;28;20447;-83
2021/04/11 13:12:19;;;;;;;27.50;25.80;;;6.10;99.90;;;;;;5073462;28;20518;-81
2021/04/11 13:14:58;;;;;;;33.67;31.83;;;5.90;99.90;;;;;;5073440;28;20461;-82
2021/04/11 13:17:30;;;;;;;20.97;19.50;;;5.90;99.90;;;;;;5075581;28;20466;-82
2021/04/11 13:20:01;;;;;;;12.40;11.30;;;6.00;99.90;;;;;;5093633;28;20445;-81
2021/04/11 13:22:33;;;;;;;9.97;9.00;;;6.10;99.90;;;;;;5091301;28;20519;-82
2021/04/11 13:25:08;;;;;;;12.90;11.80;;;6.10;99.90;;;;;;5093344;28;20550;-82
2021/04/11 13:27:38;;;;;;;10.80;9.80;;;6.10;99.90;;;;;;5073264;28;20474;-82
2021/04/11 13:30:12;;;;;;;10.83;9.83;;;6.10;99.90;;;;;;5073163;28;20456;-82
2021/04/11 13:32:46;;;;;;;10.37;9.37;;;6.10;99.90;;;;;;5092504;28;20464;-81
2021/04/11 13:35:22;;;;;;;12.70;7.83;;;6.00;99.90;;;;;;5098343;28;20480;-82
2021/04/11 13:37:55;;;;;;;9.00;7.60;;;5.90;99.90;;;;;;5117643;27;20478;-81
2021/04/11 13:40:26;;;;;;;9.63;8.70;;;5.80;99.90;;;;;;5117586;27;20476;-81
2021/04/11 13:43:00;;;;;;;9.83;8.93;;;5.80;99.90;;;;;;5116207;28;20497;-82
2021/04/11 13:45:33;;;;;;;9.10;5.13;;;5.80;99.90;;;;;;5134136;27;20521;-81
2021/04/11 13:48:21;;;;;;;8.17;6.03;;;5.80;99.90;;;;;;5133872;27;20455;-81
2021/04/11 13:51:17;;;;;;;6.97;4.03;;;5.70;99.90;;;;;;5133813;27;20480;-81
2021/04/11 13:53:55;;;;;;;8.40;6.10;;;5.50;99.90;;;;;;5113356;28;20507;-82
2021/04/11 13:56:35;;;;;;;7.47;5.00;;;5.50;99.90;;;;;;5112910;28;20974;-82
2021/04/11 13:59:08;;;;;;;6.57;4.60;;;5.50;99.90;;;;;;5113109;28;20549;-84
2021/04/11 14:01:55;;;;;;;7.13;4.87;;;5.50;99.90;;;;;;5112910;28;20480;-84
2021/04/11 14:11:20;;;;;;;7.60;6.10;;;5.10;99.90;;;;;;5126012;27;20449;-83
2021/04/11 14:14:35;;;;;;;9.50;8.60;;;5.10;99.90;;;;;;5131117;27;20444;-84
2021/04/11 14:17:25;;;;;;;7.17;6.07;;;5.30;99.90;;;;;;5005061;28;20854;-83
2021/04/11 14:24:08;;;;;;;;;;;;;;;;;;;;;
2021/04/11 14:33:46;;;;;;;10.57;9.67;;;5.10;99.90;;;;;;5124119;27;20462;-84
2021/04/11 14:36:49;;;;;;;18.00;16.90;;;5.10;99.90;;;;;;5136308;27;20572;-84
2021/04/11 14:39:37;;;;;;;15.10;14.10;;;5.20;99.90;;;;;;5109785;27;20444;-83
2021/04/11 14:42:21;;;;;;;13.60;10.50;;;5.10;99.90;;;;;;5116640;28;20798;-84
2021/04/11 14:44:55;;;;;;;12.47;11.47;;;5.10;99.90;;;;;;5129195;27;20814;-85
2021/04/11 14:47:51;;;;;;;13.50;12.57;;;5.10;99.90;;;;;;5137126;27;20458;-84
2021/04/11 14:50:53;;;;;;;13.83;12.90;;;5.20;99.90;;;;;;5119165;27;20778;-83
2021/04/11 14:53:40;;;;;;;13.67;12.67;;;5.30;99.90;;;;;;5087910;28;20480;-84
2021/04/11 14:56:39;;;;;;;13.03;12.03;;;5.40;99.90;;;;;;5116638;28;20453;-83
2021/04/11 14:59:20;;;;;;;14.00;13.00;;;5.40;99.90;;;;;;5116434;27;20484;-83
2021/04/11 15:01:58;;;;;;;17.27;16.17;;;5.50;99.90;;;;;;5116261;28;20460;-84
2021/04/11 15:04:45;;;;;;;18.03;16.90;;;5.60;99.90;;;;;;5127838;27;20505;-81
2021/04/11 15:10:55;;;;;;;23.53;21.83;;;5.80;99.90;;;;;;5097350;28;20511;-83
2021/04/11 15:13:33;;;;;;;21.13;19.73;;;6.00;99.90;;;;;;5115222;28;20980;-82
2021/04/11 15:16:07;;;;;;;8.70;7.80;;;6.00;99.90;;;;;;5115721;28;20479;-82
2021/04/11 15:18:49;;;;;;;9.97;8.50;;;6.00;99.90;;;;;;5115152;28;21000;-82
2021/04/11 15:21:24;;;;;;;8.53;7.40;;;6.00;99.90;;;;;;5115093;28;20727;-82
2021/04/11 15:24:14;;;;;;;7.57;5.20;;;6.00;99.90;;;;;;5115911;28;20483;-82
2021/04/11 15:27:02;;;;;;;7.63;5.73;;;5.90;99.90;;;;;;5115505;28;20456;-83
2021/04/11 15:29:46;;;;;;;8.27;7.47;;;6.00;99.90;;;;;;5115715;28;20454;-82
2021/04/11 15:32:20;;;;;;;9.20;7.27;;;6.00;99.90;;;;;;5115392;28;20805;-82
2021/04/11 15:34:50;;;;;;;8.17;6.90;;;6.00;99.90;;;;;;5117433;27;20494;-83
2021/04/11 15:37:37;;;;;;;8.07;5.67;;;6.10;99.90;;;;;;5123336;27;20675;-81
2021/04/11 15:40:23;;;;;;;7.67;4.40;;;6.10;99.90;;;;;;5121825;27;20445;-82
2021/04/11 15:42:56;;;;;;;7.40;4.13;;;6.00;99.90;;;;;;5122889;27;20468;-83
2021/04/11 15:45:58;;;;;;;6.97;5.17;;;6.10;99.90;;;;;;5124121;27;20827;-83
2021/04/11 15:48:37;;;;;;;47.40;5.13;;;6.10;99.90;;;;;;5124264;27;20444;-83
2021/04/11 15:51:22;;;;;;;11.33;4.80;;;6.00;99.90;;;;;;5134025;27;20485;-83
2021/04/11 15:54:01;;;;;;;7.77;5.13;;;5.90;99.90;;;;;;5132370;27;20467;-82
2021/04/11 15:57:19;;;;;;;;;;;;;;;;;;;;;
2021/04/11 16:00:13;;;;;;;7.20;5.23;;;5.70;99.90;;;;;;5085025;27;20457;-82
2021/04/11 16:02:59;;;;;;;7.70;6.43;;;5.60;99.90;;;;;;5120732;27;20453;-82
2021/04/11 16:05:29;;;;;;;8.40;5.90;;;5.50;99.90;;;;;;5119333;27;20447;-82
2021/04/11 16:08:05;;;;;;;6.90;5.50;;;5.50;99.90;;;;;;5118535;27;21025;-82
2021/04/11 16:10:37;;;;;;;10.23;7.07;;;5.50;99.90;;;;;;5116140;27;20514;-82
2021/04/11 16:13:16;;;;;;;6.53;4.80;;;5.60;99.90;;;;;;5115852;27;20461;-82
2021/04/11 16:15:46;;;;;;;12.00;6.40;;;5.60;99.90;;;;;;5115235;27;20475;-82
2021/04/11 16:18:29;;;;;;;9.00;8.20;;;5.70;99.90;;;;;;5118386;27;20487;-82
2021/04/11 16:21:09;;;;;;;8.70;7.90;;;5.90;99.90;;;;;;5121148;27;20481;-82
2021/04/11 16:23:41;;;;;;;7.27;6.20;;;5.90;99.90;;;;;;5116287;27;20925;-82
2021/04/11 16:26:21;;;;;;;8.73;7.47;;;6.00;99.90;;;;;;5121900;27;21129;-81
2021/04/11 16:28:54;;;;;;;9.40;8.60;;;6.00;99.90;;;;;;5122331;27;20537;-81
2021/04/11 16:31:42;;;;;;;8.90;8.10;;;6.00;99.90;;;;;;5117998;27;21025;-81
2021/04/11 16:34:28;;;;;;;9.47;8.23;;;6.10;99.90;;;;;;5118583;27;20496;-82
2021/04/11 16:37:15;;;;;;;8.23;7.43;;;6.00;99.90;;;;;;5116471;27;20487;-81
2021/04/11 16:39:48;;;;;;;7.23;5.60;;;6.00;99.90;;;;;;5122307;27;20485;-81
2021/04/11 16:42:31;;;;;;;8.03;4.60;;;6.00;99.90;;;;;;5120019;27;20513;-82
2021/04/11 16:45:04;;;;;;;7.77;5.03;;;6.00;99.90;;;;;;5122722;27;20819;-82
2021/04/11 16:47:38;;;;;;;6.40;3.57;;;6.00;99.90;;;;;;5120377;27;20450;-81
2021/04/11 16:50:16;;;;;;;6.70;5.03;;;6.10;99.90;;;;;;5119273;27;20505;-81
2021/04/11 16:52:52;;;;;;;7.00;3.93;;;6.10;99.90;;;;;;5116075;27;20458;-82
2021/04/11 16:55:25;;;;;;;8.03;5.53;;;6.20;99.90;;;;;;5112876;28;21028;-82
2021/04/11 16:57:59;;;;;;;9.00;5.90;;;6.20;99.90;;;;;;5113511;28;20475;-82
2021/04/11 17:00:35;;;;;;;7.20;5.53;;;6.30;99.90;;;;;;5113798;28;20491;-82
2021/04/11 17:03:12;;;;;;;7.10;5.00;;;6.20;99.90;;;;;;5113876;28;20484;-82
2021/04/11 17:05:43;;;;;;;7.80;6.20;;;6.20;99.90;;;;;;5114364;27;20452;-81
2021/04/11 17:08:23;;;;;;;8.47;5.20;;;6.40;99.90;;;;;;5112624;28;20497;-82
2021/04/11 17:10:58;;;;;;;8.90;4.80;;;6.20;99.90;;;;;;5131680;27;20989;-82
2021/04/11 17:13:45;;;;;;;6.97;3.73;;;6.30;99.90;;;;;;5134350;27;20460;-82
2021/04/11 17:16:26;;;;;;;8.53;5.40;;;6.40;99.90;;;;;;5113665;28;20485;-82
2021/04/11 17:19:31;;;;;;;7.50;4.60;;;6.50;99.90;;;;;;5114701;27;20488;-82
2021/04/11 17:22:03;;;;;;;7.57;4.77;;;6.40;99.90;;;;;;5112597;28;20452;-82
2021/04/11 17:24:33;;;;;;;7.30;4.60;;;6.40;99.90;;;;;;5121296;27;20449;-82
2021/04/11 17:27:17;;;;;;;7.77;5.23;;;6.30;99.90;;;;;;5133978;27;21089;-82
2021/04/11 17:29:48;;;;;;;8.57;5.20;;;6.20;99.90;;;;;;5117344;27;20442;-82
2021/04/11 17:32:21;;;;;;;9.43;3.30;;;6.10;99.90;;;;;;5113497;28;20534;-82
2021/04/11 17:35:02;;;;;;;6.40;2.00;;;6.00;99.90;;;;;;5116157;27;20456;-82
2021/04/11 17:37:37;;;;;;;6.50;2.30;;;6.10;99.90;;;;;;5120846;27;20479;-82
2021/04/11 17:40:30;;;;;;;;;;;;;;;;;;;;;
2021/04/11 17:43:27;;;;;;;;;;;;;;;;;;;;;
2021/04/11 17:46:02;;;;;;;9.43;3.90;;;5.90;99.90;;;;;;5095064;28;20440;-83
2021/04/11 17:48:37;;;;;;;7.10;4.00;;;5.80;99.90;;;;;;5113318;28;20533;-82
2021/04/11 17:51:10;;;;;;;6.63;2.67;;;5.80;99.90;;;;;;5112415;28;20440;-82
2021/04/11 17:54:10;;;;;;;6.37;2.53;;;5.90;99.90;;;;;;5112035;28;20451;-82
2021/04/11 17:56:46;;;;;;;8.10;3.63;;;5.80;99.90;;;;;;5092623;28;21171;-82
2021/04/11 17:59:37;;;;;;;6.10;2.50;;;6.40;99.90;;;;;;5113038;28;20498;-82
2021/04/11 18:02:21;;;;;;;6.90;2.70;;;6.40;99.90;;;;;;5113837;28;20445;-82
2021/04/11 18:05:03;;;;;;;7.07;2.83;;;6.20;99.90;;;;;;5113294;28;20518;-82
2021/04/11 18:07:35;;;;;;;6.67;3.20;;;6.20;99.90;;;;;;5113279;28;20506;-83
2021/04/11 18:10:15;;;;;;;12.23;4.50;;;6.10;99.90;;;;;;5117379;28;20532;-83